Time;durP1;ratioP1;P1;durP2;ratioP2;P2;SDS_P1;SDS_P2;PMS_P1;PMS_P2;Temp;Humidity;BMP_temperature;BMP_pressure;BME280_temperature;BME280_humidity;BME280_pressure;Samples;Min_cycle;Max_cycle;Signal;HPM_P1;HPM_P2
2022/07/30 00:00:00;;;;;;;0.00;0.00;;;;;;;;;;1746961;28;20335;-69
2022/07/30 00:00:52;;;;;;;0.00;0.00;;;;;;;;;;1749875;28;20239;-67
2022/07/30 00:01:43;;;;;;;0.00;0.00;;;;;;;;;;1746265;28;20718;-67
2022/07/30 00:02:36;;;;;;;0.00;0.00;;;;;;;;;;1746441;28;20205;-68
2022/07/30 00:03:27;;;;;;;0.00;0.00;;;;;;;;;;1746297;28;20242;-67
2022/07/30 00:04:19;;;;;;;0.00;0.00;;;;;;;;;;1745981;28;20202;-67
2022/07/30 00:05:11;;;;;;;0.00;0.00;;;;;;;;;;1741408;28;20206;-67
2022/07/30 00:06:03;;;;;;;0.00;0.00;;;;;;;;;;1747302;28;20236;-68
2022/07/30 00:06:55;;;;;;;0.00;0.00;;;;;;;;;;1745713;28;20206;-68
2022/07/30 00:07:47;;;;;;;0.00;0.00;;;;;;;;;;1744298;28;20222;-67
2022/07/30 00:08:39;;;;;;;0.00;0.00;;;;;;;;;;1747034;28;20237;-67
2022/07/30 00:09:31;;;;;;;0.00;0.00;;;;;;;;;;1751139;28;20216;-67
2022/07/30 00:10:22;;;;;;;0.00;0.00;;;;;;;;;;1745469;28;20206;-68
2022/07/30 00:11:15;;;;;;;0.00;0.00;;;;;;;;;;1745623;28;20196;-68
2022/07/30 00:12:06;;;;;;;0.00;0.00;;;;;;;;;;1745988;28;20197;-68
2022/07/30 00:12:58;;;;;;;0.00;0.00;;;;;;;;;;1746669;28;20213;-68
2022/07/30 00:13:50;;;;;;;0.00;0.00;;;;;;;;;;1747511;28;20750;-68
2022/07/30 00:14:42;;;;;;;0.00;0.00;;;;;;;;;;1746332;28;20202;-68
2022/07/30 00:15:33;;;;;;;0.00;0.00;;;;;;;;;;1744546;28;20695;-69
2022/07/30 00:16:25;;;;;;;0.00;0.00;;;;;;;;;;1747719;28;20191;-68
2022/07/30 00:17:16;;;;;;;0.00;0.00;;;;;;;;;;1751932;28;20213;-69
2022/07/30 00:18:09;;;;;;;0.00;0.00;;;;;;;;;;1746303;28;20212;-69
2022/07/30 00:19:00;;;;;;;0.00;0.00;;;;;;;;;;1746679;28;20207;-69
2022/07/30 00:19:51;;;;;;;0.00;0.00;;;;;;;;;;1746784;28;20524;-68
2022/07/30 00:20:43;;;;;;;0.00;0.00;;;;;;;;;;1743593;28;20246;-69
2022/07/30 00:21:35;;;;;;;0.00;0.00;;;;;;;;;;1744999;28;20213;-68
2022/07/30 00:22:28;;;;;;;0.00;0.00;;;;;;;;;;1746703;28;20624;-68
2022/07/30 00:23:19;;;;;;;0.00;0.00;;;;;;;;;;1746069;28;20206;-68
2022/07/30 00:24:12;;;;;;;0.00;0.00;;;;;;;;;;1746281;28;20206;-69
2022/07/30 00:25:07;;;;;;;0.00;0.00;;;;;;;;;;1747048;28;20234;-68
2022/07/30 00:25:59;;;;;;;0.00;0.00;;;;;;;;;;1743417;28;20226;-69
2022/07/30 00:26:50;;;;;;;0.00;0.00;;;;;;;;;;1748000;28;20203;-69
2022/07/30 00:27:43;;;;;;;0.00;0.00;;;;;;;;;;1749469;28;20520;-69
2022/07/30 00:28:34;;;;;;;0.00;0.00;;;;;;;;;;1744258;28;20241;-68
2022/07/30 00:29:26;;;;;;;0.00;0.00;;;;;;;;;;1745780;28;20628;-69
2022/07/30 00:30:17;;;;;;;0.00;0.00;;;;;;;;;;1746789;28;20244;-69
2022/07/30 00:31:09;;;;;;;0.00;0.00;;;;;;;;;;1746464;28;20201;-69
2022/07/30 00:32:01;;;;;;;0.00;0.00;;;;;;;;;;1748880;28;20944;-68
2022/07/30 00:32:53;;;;;;;0.00;0.00;;;;;;;;;;1750732;28;20816;-68
2022/07/30 00:33:44;;;;;;;0.00;0.00;;;;;;;;;;1746332;28;20210;-69
2022/07/30 00:34:36;;;;;;;0.00;0.00;;;;;;;;;;1745683;28;20289;-69
2022/07/30 00:35:28;;;;;;;0.00;0.00;;;;;;;;;;1744509;28;20244;-68
2022/07/30 00:36:20;;;;;;;0.00;0.00;;;;;;;;;;1747563;28;20203;-67
2022/07/30 00:37:11;;;;;;;0.00;0.00;;;;;;;;;;1745597;28;20206;-68
2022/07/30 00:38:05;;;;;;;0.00;0.00;;;;;;;;;;1742960;28;20198;-67
2022/07/30 00:38:58;;;;;;;0.00;0.00;;;;;;;;;;1746776;28;20627;-67
2022/07/30 00:39:50;;;;;;;0.00;0.00;;;;;;;;;;1748014;28;20597;-68
2022/07/30 00:40:41;;;;;;;0.00;0.00;;;;;;;;;;1746388;28;20264;-68
2022/07/30 00:41:33;;;;;;;0.00;0.00;;;;;;;;;;1744957;28;20210;-69
2022/07/30 00:42:36;;;;;;;0.00;0.00;;;;;;;;;;1747830;28;20367;-68
2022/07/30 00:43:28;;;;;;;0.00;0.00;;;;;;;;;;1748218;28;20827;-68
2022/07/30 00:44:19;;;;;;;0.00;0.00;;;;;;;;;;1747913;28;20198;-69
2022/07/30 00:45:14;;;;;;;0.00;0.00;;;;;;;;;;1746365;28;20222;-67
2022/07/30 00:46:05;;;;;;;0.00;0.00;;;;;;;;;;1747155;28;20255;-69
2022/07/30 00:46:57;;;;;;;0.00;0.00;;;;;;;;;;1744780;28;20210;-68
2022/07/30 00:47:49;;;;;;;0.00;0.00;;;;;;;;;;1747163;28;20218;-68
2022/07/30 00:48:41;;;;;;;0.00;0.00;;;;;;;;;;1747616;28;20549;-68
2022/07/30 00:49:32;;;;;;;0.00;0.00;;;;;;;;;;1751713;28;20654;-68
2022/07/30 00:50:24;;;;;;;0.00;0.00;;;;;;;;;;1747620;28;20202;-69
2022/07/30 00:51:15;;;;;;;0.00;0.00;;;;;;;;;;1746154;28;20205;-69
2022/07/30 00:52:08;;;;;;;0.00;0.00;;;;;;;;;;1747181;28;20203;-69
2022/07/30 00:52:59;;;;;;;0.00;0.00;;;;;;;;;;1747511;28;20540;-69
2022/07/30 00:53:52;;;;;;;0.00;0.00;;;;;;;;;;1747590;28;20297;-69
2022/07/30 00:54:44;;;;;;;0.00;0.00;;;;;;;;;;1748060;28;20278;-69
2022/07/30 00:55:36;;;;;;;0.00;0.00;;;;;;;;;;1746564;28;20226;-68
2022/07/30 00:56:27;;;;;;;0.00;0.00;;;;;;;;;;1746750;28;20401;-68
2022/07/30 00:57:19;;;;;;;0.00;0.00;;;;;;;;;;1745357;28;20241;-68
2022/07/30 00:58:10;;;;;;;0.00;0.00;;;;;;;;;;1740617;28;20211;-68
2022/07/30 00:59:03;;;;;;;0.00;0.00;;;;;;;;;;1741601;28;20959;-68
2022/07/30 00:59:54;;;;;;;0.00;0.00;;;;;;;;;;1740967;28;20211;-68
2022/07/30 01:00:46;;;;;;;0.00;0.00;;;;;;;;;;1738992;28;20231;-68
2022/07/30 01:01:37;;;;;;;0.00;0.00;;;;;;;;;;1740004;28;20219;-68
2022/07/30 01:02:29;;;;;;;0.00;0.00;;;;;;;;;;1740577;28;20544;-68
2022/07/30 01:03:21;;;;;;;0.00;0.00;;;;;;;;;;1740589;28;20222;-68
2022/07/30 01:04:13;;;;;;;0.00;0.00;;;;;;;;;;1741464;28;20597;-68
2022/07/30 01:05:05;;;;;;;0.00;0.00;;;;;;;;;;1740662;28;20234;-68
2022/07/30 01:05:57;;;;;;;0.00;0.00;;;;;;;;;;1739202;28;20575;-69
2022/07/30 01:06:48;;;;;;;0.00;0.00;;;;;;;;;;1740930;28;20219;-69
2022/07/30 01:07:40;;;;;;;0.00;0.00;;;;;;;;;;1740558;28;20634;-69
2022/07/30 01:08:31;;;;;;;0.00;0.00;;;;;;;;;;1741366;28;20207;-69
2022/07/30 01:09:25;;;;;;;0.00;0.00;;;;;;;;;;1740482;28;20973;-69
2022/07/30 01:10:16;;;;;;;0.00;0.00;;;;;;;;;;1733621;28;20553;-68
2022/07/30 01:11:08;;;;;;;0.00;0.00;;;;;;;;;;1740174;28;20270;-68
2022/07/30 01:12:01;;;;;;;0.00;0.00;;;;;;;;;;1740347;28;20613;-68
2022/07/30 01:12:53;;;;;;;0.00;0.00;;;;;;;;;;1740790;28;20221;-68
2022/07/30 01:13:45;;;;;;;0.00;0.00;;;;;;;;;;1740676;28;20210;-69
2022/07/30 01:14:38;;;;;;;0.00;0.00;;;;;;;;;;1741229;28;20215;-68
2022/07/30 01:15:29;;;;;;;0.00;0.00;;;;;;;;;;1734922;28;20250;-68
2022/07/30 01:16:22;;;;;;;0.00;0.00;;;;;;;;;;1739833;28;20238;-68
2022/07/30 01:17:13;;;;;;;0.00;0.00;;;;;;;;;;1740550;28;20214;-68
2022/07/30 01:18:06;;;;;;;0.00;0.00;;;;;;;;;;1740815;28;20832;-68
2022/07/30 01:20:10;;;;;;;0.00;0.00;;;;;;;;;;1740352;28;20230;-69
2022/07/30 01:21:06;;;;;;;0.00;0.00;;;;;;;;;;1739687;28;20246;-69
2022/07/30 01:22:03;;;;;;;0.00;0.00;;;;;;;;;;1740693;28;20616;-69
2022/07/30 01:22:58;;;;;;;0.00;0.00;;;;;;;;;;1740884;28;20200;-69
2022/07/30 01:23:53;;;;;;;0.00;0.00;;;;;;;;;;1740764;28;20609;-69
2022/07/30 01:24:52;;;;;;;0.00;0.00;;;;;;;;;;1740748;28;20541;-69
2022/07/30 01:25:56;;;;;;;0.00;0.00;;;;;;;;;;1734309;28;20236;-68
2022/07/30 01:26:49;;;;;;;0.00;0.00;;;;;;;;;;1736933;28;20295;-68
2022/07/30 01:27:42;;;;;;;0.00;0.00;;;;;;;;;;1733893;28;20648;-68
2022/07/30 01:28:37;;;;;;;0.00;0.00;;;;;;;;;;1734327;28;20540;-68
2022/07/30 01:29:30;;;;;;;0.00;0.00;;;;;;;;;;1733764;28;20212;-68
2022/07/30 01:30:23;;;;;;;0.00;0.00;;;;;;;;;;1732633;28;20241;-68
2022/07/30 01:31:16;;;;;;;0.00;0.00;;;;;;;;;;1733374;28;20273;-68
2022/07/30 01:32:08;;;;;;;0.00;0.00;;;;;;;;;;1733466;28;20274;-68
2022/07/30 01:33:01;;;;;;;0.00;0.00;;;;;;;;;;1730969;28;20646;-68
2022/07/30 01:33:53;;;;;;;0.00;0.00;;;;;;;;;;1734115;28;20291;-68
2022/07/30 01:34:46;;;;;;;0.00;0.00;;;;;;;;;;1733787;28;20523;-68
2022/07/30 01:35:38;;;;;;;0.00;0.00;;;;;;;;;;1736283;28;20605;-68
2022/07/30 01:36:32;;;;;;;0.00;0.00;;;;;;;;;;1740472;28;20588;-69
2022/07/30 01:37:24;;;;;;;0.00;0.00;;;;;;;;;;1741347;28;20256;-68
2022/07/30 01:38:20;;;;;;;0.00;0.00;;;;;;;;;;1740166;28;20213;-68
2022/07/30 01:39:12;;;;;;;0.00;0.00;;;;;;;;;;1741019;28;20207;-68
2022/07/30 01:40:05;;;;;;;0.00;0.00;;;;;;;;;;1740849;28;20203;-68
2022/07/30 01:40:58;;;;;;;0.00;0.00;;;;;;;;;;1732028;28;20243;-68
2022/07/30 01:41:51;;;;;;;0.00;0.00;;;;;;;;;;1734281;28;20219;-68
2022/07/30 01:42:43;;;;;;;0.00;0.00;;;;;;;;;;1733127;28;20214;-68
2022/07/30 01:43:36;;;;;;;0.00;0.00;;;;;;;;;;1733867;28;20692;-68
2022/07/30 01:44:27;;;;;;;0.00;0.00;;;;;;;;;;1733606;28;20208;-68
2022/07/30 01:45:19;;;;;;;0.00;0.00;;;;;;;;;;1732485;28;20298;-68
2022/07/30 01:46:11;;;;;;;0.00;0.00;;;;;;;;;;1733796;28;20231;-68
2022/07/30 01:47:04;;;;;;;0.00;0.00;;;;;;;;;;1734297;28;20238;-68
2022/07/30 01:47:56;;;;;;;0.00;0.00;;;;;;;;;;1733312;28;20208;-68
2022/07/30 01:48:49;;;;;;;0.00;0.00;;;;;;;;;;1733744;28;20266;-68
2022/07/30 01:49:40;;;;;;;0.00;0.00;;;;;;;;;;1733508;28;21674;-68
2022/07/30 01:50:33;;;;;;;0.00;0.00;;;;;;;;;;1731933;28;20239;-69
2022/07/30 01:51:24;;;;;;;0.00;0.00;;;;;;;;;;1732935;28;20277;-69
2022/07/30 01:52:17;;;;;;;0.00;0.00;;;;;;;;;;1733272;28;20299;-69
2022/07/30 01:53:09;;;;;;;0.00;0.00;;;;;;;;;;1732943;28;20284;-69
2022/07/30 01:54:01;;;;;;;0.00;0.00;;;;;;;;;;1734759;28;20595;-69
2022/07/30 01:54:54;;;;;;;0.00;0.00;;;;;;;;;;1734149;28;20204;-69
2022/07/30 01:55:47;;;;;;;0.00;0.00;;;;;;;;;;1732242;28;20254;-69
2022/07/30 01:56:40;;;;;;;0.00;0.00;;;;;;;;;;1733126;28;20212;-69
2022/07/30 01:57:33;;;;;;;0.00;0.00;;;;;;;;;;1733864;28;20208;-69
2022/07/30 01:58:27;;;;;;;0.00;0.00;;;;;;;;;;1737668;28;20607;-69
2022/07/30 01:59:20;;;;;;;0.00;0.00;;;;;;;;;;1740610;28;20260;-69
2022/07/30 02:00:12;;;;;;;0.00;0.00;;;;;;;;;;1738863;28;20249;-67
2022/07/30 02:01:06;;;;;;;0.00;0.00;;;;;;;;;;1735801;28;20641;-68
2022/07/30 02:01:58;;;;;;;0.00;0.00;;;;;;;;;;1736238;28;20215;-68
2022/07/30 02:02:50;;;;;;;0.00;0.00;;;;;;;;;;1740371;28;20605;-68
2022/07/30 02:03:41;;;;;;;0.00;0.00;;;;;;;;;;1740900;28;20214;-68
2022/07/30 02:04:33;;;;;;;0.00;0.00;;;;;;;;;;1739263;28;20211;-69
2022/07/30 02:05:26;;;;;;;0.00;0.00;;;;;;;;;;1738802;28;20211;-69
2022/07/30 02:06:21;;;;;;;0.00;0.00;;;;;;;;;;1739812;28;20610;-69
2022/07/30 02:07:16;;;;;;;0.00;0.00;;;;;;;;;;1739408;28;20211;-69
2022/07/30 02:08:12;;;;;;;0.00;0.00;;;;;;;;;;1740547;28;20203;-69
2022/07/30 02:09:04;;;;;;;0.00;0.00;;;;;;;;;;1740606;28;20204;-69
2022/07/30 02:09:58;;;;;;;0.00;0.00;;;;;;;;;;1740694;28;20202;-69
2022/07/30 02:10:52;;;;;;;0.00;0.00;;;;;;;;;;1738775;28;20262;-69
2022/07/30 02:12:59;;;;;;;0.00;0.00;;;;;;;;;;1736190;28;20206;-69
2022/07/30 02:13:52;;;;;;;0.00;0.00;;;;;;;;;;1740917;28;20659;-69
2022/07/30 02:14:48;;;;;;;0.00;0.00;;;;;;;;;;1740484;28;20652;-69
2022/07/30 02:15:41;;;;;;;0.00;0.00;;;;;;;;;;1739110;28;20238;-69
2022/07/30 02:16:37;;;;;;;0.00;0.00;;;;;;;;;;1740558;28;20265;-69
2022/07/30 02:17:29;;;;;;;0.00;0.00;;;;;;;;;;1735807;28;20215;-69
2022/07/30 02:18:23;;;;;;;0.00;0.00;;;;;;;;;;1735296;28;20663;-69
2022/07/30 02:19:16;;;;;;;0.00;0.00;;;;;;;;;;1738509;28;20210;-69
2022/07/30 02:20:09;;;;;;;0.00;0.00;;;;;;;;;;1740115;28;20203;-69
2022/07/30 02:21:02;;;;;;;0.00;0.00;;;;;;;;;;1738994;28;20688;-69
2022/07/30 02:21:59;;;;;;;0.00;0.00;;;;;;;;;;1739428;28;20290;-69
2022/07/30 02:22:54;;;;;;;0.00;0.00;;;;;;;;;;1735464;28;20258;-69
2022/07/30 02:23:49;;;;;;;0.00;0.00;;;;;;;;;;1740595;28;20235;-69
2022/07/30 02:24:41;;;;;;;0.00;0.00;;;;;;;;;;1740167;28;20210;-69
2022/07/30 02:25:35;;;;;;;0.00;0.00;;;;;;;;;;1740556;28;20231;-68
2022/07/30 02:26:29;;;;;;;0.00;0.00;;;;;;;;;;1737238;28;20661;-68
2022/07/30 02:27:26;;;;;;;0.00;0.00;;;;;;;;;;1737000;28;20211;-68
2022/07/30 02:28:19;;;;;;;0.00;0.00;;;;;;;;;;1741585;28;20203;-68
2022/07/30 02:29:12;;;;;;;0.00;0.00;;;;;;;;;;1734328;28;20204;-68
2022/07/30 02:30:07;;;;;;;0.00;0.00;;;;;;;;;;1739919;28;20211;-68
2022/07/30 02:31:00;;;;;;;0.00;0.00;;;;;;;;;;1738522;28;20226;-68
2022/07/30 02:31:53;;;;;;;0.00;0.00;;;;;;;;;;1740518;28;20345;-68
2022/07/30 02:32:47;;;;;;;0.00;0.00;;;;;;;;;;1739910;28;20240;-68
2022/07/30 02:33:41;;;;;;;0.00;0.00;;;;;;;;;;1737675;28;20214;-68
2022/07/30 02:34:33;;;;;;;0.00;0.00;;;;;;;;;;1739561;28;20207;-68
2022/07/30 02:35:25;;;;;;;0.00;0.00;;;;;;;;;;1739121;28;20203;-68
2022/07/30 02:36:18;;;;;;;0.00;0.00;;;;;;;;;;1740312;28;20210;-68
2022/07/30 02:37:11;;;;;;;0.00;0.00;;;;;;;;;;1739181;28;20207;-68
2022/07/30 02:38:04;;;;;;;0.00;0.00;;;;;;;;;;1740324;28;20692;-68
2022/07/30 02:38:56;;;;;;;0.00;0.00;;;;;;;;;;1736473;28;20311;-68
2022/07/30 02:39:48;;;;;;;0.00;0.00;;;;;;;;;;1740428;28;20199;-68
2022/07/30 02:40:40;;;;;;;0.00;0.00;;;;;;;;;;1736598;28;20243;-68
2022/07/30 02:41:33;;;;;;;0.00;0.00;;;;;;;;;;1739703;28;20229;-68
2022/07/30 02:42:27;;;;;;;0.00;0.00;;;;;;;;;;1740150;28;20228;-68
2022/07/30 02:43:23;;;;;;;0.00;0.00;;;;;;;;;;1740282;28;20357;-68
2022/07/30 02:44:16;;;;;;;0.00;0.00;;;;;;;;;;1740725;28;20598;-68
2022/07/30 02:45:09;;;;;;;0.00;0.00;;;;;;;;;;1738054;28;20274;-67
2022/07/30 02:46:01;;;;;;;0.00;0.00;;;;;;;;;;1737684;28;20247;-68
2022/07/30 02:46:54;;;;;;;0.00;0.00;;;;;;;;;;1740610;28;20213;-68
2022/07/30 02:47:48;;;;;;;0.00;0.00;;;;;;;;;;1740037;28;20211;-68
2022/07/30 02:48:42;;;;;;;0.00;0.00;;;;;;;;;;1738939;28;20249;-67
2022/07/30 02:49:34;;;;;;;0.00;0.00;;;;;;;;;;1736239;28;20290;-68
2022/07/30 02:50:27;;;;;;;0.00;0.00;;;;;;;;;;1739535;28;20194;-68
2022/07/30 02:51:19;;;;;;;0.00;0.00;;;;;;;;;;1744319;28;20513;-68
2022/07/30 02:52:14;;;;;;;0.00;0.00;;;;;;;;;;1747080;28;20731;-68
2022/07/30 02:53:08;;;;;;;0.00;0.00;;;;;;;;;;1744983;28;20645;-68
2022/07/30 02:54:02;;;;;;;0.00;0.00;;;;;;;;;;1747226;28;20198;-68
2022/07/30 02:54:56;;;;;;;0.00;0.00;;;;;;;;;;1745463;28;20655;-68
2022/07/30 02:55:49;;;;;;;0.00;0.00;;;;;;;;;;1739038;28;20288;-68
2022/07/30 02:56:40;;;;;;;0.00;0.00;;;;;;;;;;1742610;28;20222;-68
2022/07/30 02:57:34;;;;;;;0.00;0.00;;;;;;;;;;1745481;28;20202;-68
2022/07/30 02:58:26;;;;;;;0.00;0.00;;;;;;;;;;1744236;28;20234;-68
2022/07/30 02:59:20;;;;;;;0.00;0.00;;;;;;;;;;1747328;28;20203;-68
2022/07/30 03:00:12;;;;;;;0.00;0.00;;;;;;;;;;1744348;28;20206;-67
2022/07/30 03:01:05;;;;;;;0.00;0.00;;;;;;;;;;1751955;28;20201;-68
2022/07/30 03:01:57;;;;;;;0.00;0.00;;;;;;;;;;1745047;28;20210;-68
2022/07/30 03:02:49;;;;;;;0.00;0.00;;;;;;;;;;1746080;28;20206;-68
2022/07/30 03:03:42;;;;;;;0.00;0.00;;;;;;;;;;1747340;28;20210;-68
2022/07/30 03:04:35;;;;;;;0.00;0.00;;;;;;;;;;1743825;28;21936;-68
2022/07/30 03:05:26;;;;;;;0.00;0.00;;;;;;;;;;1743038;28;20297;-67
2022/07/30 03:06:19;;;;;;;0.00;0.00;;;;;;;;;;1746789;28;20218;-68
2022/07/30 03:07:10;;;;;;;0.00;0.00;;;;;;;;;;1746961;28;20614;-68
2022/07/30 03:08:03;;;;;;;0.00;0.00;;;;;;;;;;1746694;28;20198;-68
2022/07/30 03:08:54;;;;;;;0.00;0.00;;;;;;;;;;1747537;28;20244;-68
2022/07/30 03:09:47;;;;;;;0.00;0.00;;;;;;;;;;1746222;28;20716;-68
2022/07/30 03:10:40;;;;;;;0.00;0.00;;;;;;;;;;1745750;28;20591;-69
2022/07/30 03:11:33;;;;;;;0.00;0.00;;;;;;;;;;1745876;28;20298;-69
2022/07/30 03:12:28;;;;;;;0.00;0.00;;;;;;;;;;1746575;28;20207;-69
2022/07/30 03:13:22;;;;;;;0.00;0.00;;;;;;;;;;1741385;28;20636;-69
2022/07/30 03:14:13;;;;;;;0.00;0.00;;;;;;;;;;1746757;28;20275;-69
2022/07/30 03:15:06;;;;;;;0.00;0.00;;;;;;;;;;1746324;28;20636;-69
2022/07/30 03:15:58;;;;;;;0.00;0.00;;;;;;;;;;1744706;28;20274;-69
2022/07/30 03:16:58;;;;;;;0.00;0.00;;;;;;;;;;1743040;28;20230;-69
2022/07/30 03:17:53;;;;;;;0.00;0.00;;;;;;;;;;1746810;28;20221;-69
2022/07/30 03:18:46;;;;;;;0.00;0.00;;;;;;;;;;1747297;28;20238;-69
2022/07/30 03:19:38;;;;;;;0.00;0.00;;;;;;;;;;1746612;28;20256;-69
2022/07/30 03:20:32;;;;;;;0.00;0.00;;;;;;;;;;1745643;28;20750;-68
2022/07/30 03:21:25;;;;;;;0.00;0.00;;;;;;;;;;1745733;28;20552;-68
2022/07/30 03:22:18;;;;;;;0.00;0.00;;;;;;;;;;1746047;28;20202;-68
2022/07/30 03:23:10;;;;;;;0.00;0.00;;;;;;;;;;1747104;28;20206;-68
2022/07/30 03:24:03;;;;;;;0.00;0.00;;;;;;;;;;1746912;28;20264;-68
2022/07/30 03:24:55;;;;;;;0.00;0.00;;;;;;;;;;1746596;28;20632;-68
2022/07/30 03:25:49;;;;;;;0.00;0.00;;;;;;;;;;1743905;28;20230;-69
2022/07/30 03:26:42;;;;;;;0.00;0.00;;;;;;;;;;1746374;28;20210;-69
2022/07/30 03:27:35;;;;;;;0.00;0.00;;;;;;;;;;1747072;28;20213;-69
2022/07/30 03:28:30;;;;;;;0.00;0.00;;;;;;;;;;1746995;28;20248;-69
2022/07/30 03:29:24;;;;;;;0.00;0.00;;;;;;;;;;1746933;28;20199;-69
2022/07/30 03:30:15;;;;;;;0.00;0.00;;;;;;;;;;1744071;28;20206;-69
2022/07/30 03:31:09;;;;;;;0.00;0.00;;;;;;;;;;1746247;28;20655;-69
2022/07/30 03:32:01;;;;;;;0.00;0.00;;;;;;;;;;1742845;28;20227;-69
2022/07/30 03:32:54;;;;;;;0.00;0.00;;;;;;;;;;1746610;28;20235;-69
2022/07/30 03:33:46;;;;;;;0.00;0.00;;;;;;;;;;1747459;28;20203;-69
2022/07/30 03:34:38;;;;;;;0.00;0.00;;;;;;;;;;1746342;28;20206;-69
2022/07/30 03:35:30;;;;;;;0.00;0.00;;;;;;;;;;1745159;28;20242;-69
2022/07/30 03:36:22;;;;;;;0.00;0.00;;;;;;;;;;1747146;28;20278;-69
2022/07/30 03:37:14;;;;;;;0.00;0.00;;;;;;;;;;1746715;28;20880;-69
2022/07/30 03:38:06;;;;;;;0.00;0.00;;;;;;;;;;1744535;28;20230;-69
2022/07/30 03:38:57;;;;;;;0.00;0.00;;;;;;;;;;1742530;28;20214;-69
2022/07/30 03:39:50;;;;;;;0.00;0.00;;;;;;;;;;1747085;28;20240;-69
2022/07/30 03:40:41;;;;;;;0.00;0.00;;;;;;;;;;1745265;28;20238;-69
2022/07/30 03:41:34;;;;;;;0.00;0.00;;;;;;;;;;1745427;28;20715;-69
2022/07/30 03:42:26;;;;;;;0.00;0.00;;;;;;;;;;1746722;28;20256;-69
2022/07/30 03:43:18;;;;;;;0.00;0.00;;;;;;;;;;1745365;28;20199;-69
2022/07/30 03:44:11;;;;;;;0.00;0.00;;;;;;;;;;1747502;28;20218;-69
2022/07/30 03:45:05;;;;;;;0.00;0.00;;;;;;;;;;1746627;28;20545;-69
2022/07/30 03:45:57;;;;;;;0.00;0.00;;;;;;;;;;1744401;28;20306;-69
2022/07/30 03:46:49;;;;;;;0.00;0.00;;;;;;;;;;1747010;28;20233;-69
2022/07/30 03:47:42;;;;;;;0.00;0.00;;;;;;;;;;1745879;28;20289;-69
2022/07/30 03:48:34;;;;;;;0.00;0.00;;;;;;;;;;1743282;28;20229;-69
2022/07/30 03:49:26;;;;;;;0.00;0.00;;;;;;;;;;1750277;28;20296;-69
2022/07/30 03:50:17;;;;;;;0.00;0.00;;;;;;;;;;1744942;28;20214;-69
2022/07/30 03:51:10;;;;;;;0.00;0.00;;;;;;;;;;1745884;28;20259;-69
2022/07/30 03:52:03;;;;;;;0.00;0.00;;;;;;;;;;1746201;28;20666;-69
2022/07/30 03:52:55;;;;;;;0.00;0.00;;;;;;;;;;1746820;28;20786;-69
2022/07/30 03:53:47;;;;;;;0.00;0.00;;;;;;;;;;1746993;28;20206;-69
2022/07/30 03:54:39;;;;;;;0.00;0.00;;;;;;;;;;1746754;28;20233;-69
2022/07/30 03:55:31;;;;;;;0.00;0.00;;;;;;;;;;1744810;28;20246;-68
2022/07/30 03:56:23;;;;;;;0.00;0.00;;;;;;;;;;1746876;28;20190;-69
2022/07/30 03:57:15;;;;;;;0.00;0.00;;;;;;;;;;1747342;28;20221;-69
2022/07/30 03:58:06;;;;;;;0.00;0.00;;;;;;;;;;1746080;28;20552;-69
2022/07/30 03:58:58;;;;;;;0.00;0.00;;;;;;;;;;1743216;28;20270;-69
2022/07/30 03:59:51;;;;;;;0.00;0.00;;;;;;;;;;1743615;28;20217;-69
2022/07/30 04:00:47;;;;;;;0.00;0.00;;;;;;;;;;1740382;28;20238;-68
2022/07/30 04:01:38;;;;;;;0.00;0.00;;;;;;;;;;1739114;28;20206;-68
2022/07/30 04:02:31;;;;;;;0.00;0.00;;;;;;;;;;1739079;28;20217;-68
2022/07/30 04:03:25;;;;;;;0.00;0.00;;;;;;;;;;1739826;28;20234;-68
2022/07/30 04:04:17;;;;;;;0.00;0.00;;;;;;;;;;1739412;28;20203;-68
2022/07/30 04:05:09;;;;;;;0.00;0.00;;;;;;;;;;1739086;28;20214;-67
2022/07/30 04:06:01;;;;;;;0.00;0.00;;;;;;;;;;1733246;28;20645;-68
2022/07/30 04:06:52;;;;;;;0.00;0.00;;;;;;;;;;1737350;28;20268;-68
2022/07/30 04:07:45;;;;;;;0.00;0.00;;;;;;;;;;1737324;28;20203;-68
2022/07/30 04:08:36;;;;;;;0.00;0.00;;;;;;;;;;1741378;28;20221;-68
2022/07/30 04:09:28;;;;;;;0.00;0.00;;;;;;;;;;1745606;28;20202;-68
2022/07/30 04:10:20;;;;;;;0.00;0.00;;;;;;;;;;1734983;28;20277;-69
2022/07/30 04:11:12;;;;;;;0.00;0.00;;;;;;;;;;1738851;28;20203;-69
2022/07/30 04:12:03;;;;;;;0.00;0.00;;;;;;;;;;1739395;28;20586;-69
2022/07/30 04:12:56;;;;;;;0.00;0.00;;;;;;;;;;1739196;28;20626;-69
2022/07/30 04:13:47;;;;;;;0.00;0.00;;;;;;;;;;1740375;28;20211;-69
2022/07/30 04:14:40;;;;;;;0.00;0.00;;;;;;;;;;1737650;28;20792;-69
2022/07/30 04:15:35;;;;;;;0.00;0.00;;;;;;;;;;1736806;28;20329;-69
2022/07/30 04:16:31;;;;;;;0.00;0.00;;;;;;;;;;1738096;28;20195;-69
2022/07/30 04:17:25;;;;;;;0.00;0.00;;;;;;;;;;1739735;28;20195;-69
2022/07/30 04:18:19;;;;;;;0.00;0.00;;;;;;;;;;1739051;28;20636;-69
2022/07/30 04:19:14;;;;;;;0.00;0.00;;;;;;;;;;1737324;28;20618;-69
2022/07/30 04:20:08;;;;;;;0.00;0.00;;;;;;;;;;1739878;28;20199;-69
2022/07/30 04:21:03;;;;;;;0.00;0.00;;;;;;;;;;1737516;28;20231;-69
2022/07/30 04:21:56;;;;;;;0.00;0.00;;;;;;;;;;1739638;28;20298;-69
2022/07/30 04:22:47;;;;;;;0.00;0.00;;;;;;;;;;1736467;28;20272;-69
2022/07/30 04:23:39;;;;;;;0.00;0.00;;;;;;;;;;1737009;28;20203;-69
2022/07/30 04:24:31;;;;;;;0.00;0.00;;;;;;;;;;1739646;28;20210;-69
2022/07/30 04:25:23;;;;;;;0.00;0.00;;;;;;;;;;1738174;28;20222;-69
2022/07/30 04:26:15;;;;;;;0.00;0.00;;;;;;;;;;1739802;28;20275;-69
2022/07/30 04:27:06;;;;;;;0.00;0.00;;;;;;;;;;1737633;28;20203;-69
2022/07/30 04:27:59;;;;;;;0.00;0.00;;;;;;;;;;1740091;28;20215;-69
2022/07/30 04:28:51;;;;;;;0.10;0.10;;;;;;;;;;1733937;28;20204;-69
2022/07/30 04:29:43;;;;;;;0.00;0.00;;;;;;;;;;1739594;28;20199;-69
2022/07/30 04:30:36;;;;;;;0.00;0.00;;;;;;;;;;1737965;28;20270;-69
2022/07/30 04:31:28;;;;;;;0.00;0.00;;;;;;;;;;1738676;28;20211;-69
2022/07/30 04:32:20;;;;;;;0.00;0.00;;;;;;;;;;1738898;28;20256;-69
2022/07/30 04:33:12;;;;;;;0.00;0.00;;;;;;;;;;1739633;28;20199;-69
2022/07/30 04:34:04;;;;;;;0.00;0.00;;;;;;;;;;1739643;28;20279;-69
2022/07/30 04:34:57;;;;;;;0.00;0.00;;;;;;;;;;1739422;28;20213;-69
2022/07/30 04:35:48;;;;;;;0.00;0.00;;;;;;;;;;1738502;28;20276;-68
2022/07/30 04:36:40;;;;;;;0.00;0.00;;;;;;;;;;1740073;28;20199;-68
2022/07/30 04:37:31;;;;;;;0.00;0.00;;;;;;;;;;1737214;28;20215;-68
2022/07/30 04:38:24;;;;;;;0.00;0.00;;;;;;;;;;1739813;28;20277;-68
2022/07/30 04:39:15;;;;;;;0.00;0.00;;;;;;;;;;1739745;28;20230;-68
2022/07/30 04:40:08;;;;;;;0.00;0.00;;;;;;;;;;1740328;28;20199;-68
2022/07/30 04:40:59;;;;;;;0.00;0.00;;;;;;;;;;1737471;28;20774;-68
2022/07/30 04:41:52;;;;;;;0.00;0.00;;;;;;;;;;1736310;28;20239;-68
2022/07/30 04:42:43;;;;;;;0.00;0.00;;;;;;;;;;1739167;28;20210;-68
2022/07/30 04:43:35;;;;;;;0.00;0.00;;;;;;;;;;1739549;28;20641;-68
2022/07/30 04:44:26;;;;;;;0.00;0.00;;;;;;;;;;1740109;28;20211;-68
2022/07/30 04:45:19;;;;;;;0.00;0.00;;;;;;;;;;1738034;28;20206;-68
2022/07/30 04:46:11;;;;;;;0.00;0.00;;;;;;;;;;1739225;28;20525;-69
2022/07/30 04:47:03;;;;;;;0.00;0.00;;;;;;;;;;1735182;28;20751;-68
2022/07/30 04:47:55;;;;;;;0.00;0.00;;;;;;;;;;1739727;28;20244;-68
2022/07/30 04:48:47;;;;;;;0.00;0.00;;;;;;;;;;1740352;28;20210;-69
2022/07/30 04:49:38;;;;;;;0.00;0.00;;;;;;;;;;1739743;28;20261;-68
2022/07/30 04:50:32;;;;;;;0.00;0.00;;;;;;;;;;1737914;28;20250;-68
2022/07/30 04:51:25;;;;;;;0.00;0.00;;;;;;;;;;1738863;28;20218;-68
2022/07/30 04:52:18;;;;;;;0.00;0.00;;;;;;;;;;1739324;28;20207;-68
2022/07/30 04:53:09;;;;;;;0.00;0.00;;;;;;;;;;1739632;28;20203;-68
2022/07/30 04:54:02;;;;;;;0.00;0.00;;;;;;;;;;1739960;28;20249;-68
2022/07/30 04:54:55;;;;;;;0.00;0.00;;;;;;;;;;1739343;28;20300;-68
2022/07/30 04:55:49;;;;;;;0.00;0.00;;;;;;;;;;1737846;28;20238;-69
2022/07/30 04:56:40;;;;;;;0.00;0.00;;;;;;;;;;1735305;28;20204;-69
2022/07/30 04:57:34;;;;;;;0.00;0.00;;;;;;;;;;1739740;28;20250;-69
2022/07/30 04:58:25;;;;;;;0.00;0.00;;;;;;;;;;1739185;28;20235;-69
2022/07/30 04:59:18;;;;;;;0.00;0.00;;;;;;;;;;1739345;28;20592;-69
2022/07/30 05:00:10;;;;;;;0.00;0.00;;;;;;;;;;1738677;28;20203;-69
2022/07/30 05:01:03;;;;;;;0.00;0.00;;;;;;;;;;1737937;28;20238;-69
2022/07/30 05:01:56;;;;;;;0.00;0.00;;;;;;;;;;1735546;28;20613;-69
2022/07/30 05:02:50;;;;;;;0.00;0.00;;;;;;;;;;1738718;28;20207;-69
2022/07/30 05:03:42;;;;;;;0.00;0.00;;;;;;;;;;1740010;28;20691;-69
2022/07/30 05:04:34;;;;;;;0.00;0.00;;;;;;;;;;1738623;28;20206;-69
2022/07/30 05:05:26;;;;;;;0.00;0.00;;;;;;;;;;1735914;28;20210;-69
2022/07/30 05:06:19;;;;;;;0.00;0.00;;;;;;;;;;1739424;28;20203;-69
2022/07/30 05:07:12;;;;;;;0.00;0.00;;;;;;;;;;1739621;28;20219;-69
2022/07/30 05:08:05;;;;;;;0.00;0.00;;;;;;;;;;1739508;28;20825;-69
2022/07/30 05:08:56;;;;;;;0.00;0.00;;;;;;;;;;1739764;28;20530;-69
2022/07/30 05:09:49;;;;;;;0.00;0.00;;;;;;;;;;1739934;28;20207;-69
2022/07/30 05:10:40;;;;;;;0.00;0.00;;;;;;;;;;1737962;28;20239;-68
2022/07/30 05:11:32;;;;;;;0.00;0.00;;;;;;;;;;1738947;28;20206;-68
2022/07/30 05:12:31;;;;;;;0.00;0.00;;;;;;;;;;1739272;28;20207;-68
2022/07/30 05:13:25;;;;;;;0.00;0.00;;;;;;;;;;1739236;28;20587;-68
2022/07/30 05:14:17;;;;;;;0.00;0.00;;;;;;;;;;1740075;28;20207;-68
2022/07/30 05:15:10;;;;;;;0.00;0.00;;;;;;;;;;1738661;28;20399;-69
2022/07/30 05:16:01;;;;;;;0.00;0.00;;;;;;;;;;1733187;28;20499;-69
2022/07/30 05:16:54;;;;;;;0.00;0.00;;;;;;;;;;1738322;28;20269;-69
2022/07/30 05:17:47;;;;;;;0.00;0.00;;;;;;;;;;1734210;28;20649;-69